sensor_id;sensor_type;location;lat;lon;timestamp;pressure;altitude;pressure_sealevel;temperature;humidity
6030;BME280;3043;42.682;23.376;2022-11-18T00:01:23;93844.94;;;9.70;100.00
6030;BME280;3043;42.682;23.376;2022-11-18T00:03:49;93850.78;;;9.74;100.00
6030;BME280;3043;42.682;23.376;2022-11-18T00:06:18;93842.03;;;9.78;100.00
6030;BME280;3043;42.682;23.376;2022-11-18T00:08:44;93841.13;;;9.79;100.00
6030;BME280;3043;42.682;23.376;2022-11-18T00:11:18;93841.91;;;9.81;100.00
6030;BME280;3043;42.682;23.376;2022-11-18T00:14:09;93852.13;;;9.84;100.00
6030;BME280;3043;42.682;23.376;2022-11-18T00:17:10;93851.88;;;9.90;100.00
6030;BME280;3043;42.682;23.376;2022-11-18T00:19:37;93850.09;;;9.92;100.00
6030;BME280;3043;42.682;23.376;2022-11-18T00:22:05;93838.22;;;9.86;100.00
6030;BME280;3043;42.682;23.376;2022-11-18T00:24:31;93845.03;;;9.89;100.00
6030;BME280;3043;42.682;23.376;2022-11-18T00:26:57;93849.53;;;9.84;100.00
6030;BME280;3043;42.682;23.376;2022-11-18T00:29:23;93850.56;;;9.80;100.00
6030;BME280;3043;42.682;23.376;2022-11-18T00:31:51;93850.34;;;9.86;100.00
6030;BME280;3043;42.682;23.376;2022-11-18T00:34:17;93849.00;;;9.76;100.00
6030;BME280;3043;42.682;23.376;2022-11-18T00:36:43;93855.38;;;9.46;100.00
6030;BME280;3043;42.682;23.376;2022-11-18T00:39:13;93853.69;;;9.45;100.00
6030;BME280;3043;42.682;23.376;2022-11-18T00:41:39;93844.88;;;9.27;100.00
6030;BME280;3043;42.682;23.376;2022-11-18T00:44:23;93844.94;;;9.02;100.00
6030;BME280;3043;42.682;23.376;2022-11-18T00:46:48;93836.44;;;9.00;100.00
6030;BME280;3043;42.682;23.376;2022-11-18T00:49:14;93849.34;;;8.77;100.00
6030;BME280;3043;42.682;23.376;2022-11-18T00:51:39;93848.59;;;8.74;100.00
6030;BME280;3043;42.682;23.376;2022-11-18T00:54:05;93844.78;;;8.61;100.00
6030;BME280;3043;42.682;23.376;2022-11-18T00:56:30;93857.34;;;8.45;100.00
6030;BME280;3043;42.682;23.376;2022-11-18T00:58:56;93850.88;;;8.58;100.00
6030;BME280;3043;42.682;23.376;2022-11-18T01:01:21;93849.56;;;8.47;100.00
6030;BME280;3043;42.682;23.376;2022-11-18T01:03:47;93849.84;;;8.39;100.00
6030;BME280;3043;42.682;23.376;2022-11-18T01:06:12;93845.91;;;8.29;100.00
6030;BME280;3043;42.682;23.376;2022-11-18T01:08:38;93856.41;;;8.48;100.00
6030;BME280;3043;42.682;23.376;2022-11-18T01:11:03;93842.00;;;8.42;100.00
6030;BME280;3043;42.682;23.376;2022-11-18T01:13:51;93845.34;;;8.20;100.00
6030;BME280;3043;42.682;23.376;2022-11-18T01:16:22;93841.06;;;7.94;100.00
6030;BME280;3043;42.682;23.376;2022-11-18T01:18:47;93855.34;;;7.77;100.00
6030;BME280;3043;42.682;23.376;2022-11-18T01:21:13;93849.63;;;7.67;100.00
6030;BME280;3043;42.682;23.376;2022-11-18T01:23:39;93846.09;;;7.71;100.00
6030;BME280;3043;42.682;23.376;2022-11-18T01:26:09;93850.22;;;7.49;100.00
6030;BME280;3043;42.682;23.376;2022-11-18T01:28:35;93853.13;;;7.39;100.00
6030;BME280;3043;42.682;23.376;2022-11-18T01:31:14;93847.44;;;7.29;100.00
6030;BME280;3043;42.682;23.376;2022-11-18T01:33:41;93848.94;;;7.36;100.00
6030;BME280;3043;42.682;23.376;2022-11-18T01:36:20;93842.34;;;7.54;100.00
6030;BME280;3043;42.682;23.376;2022-11-18T01:38:46;93843.31;;;7.51;100.00
6030;BME280;3043;42.682;23.376;2022-11-18T01:41:12;93834.88;;;7.46;100.00
6030;BME280;3043;42.682;23.376;2022-11-18T01:46:19;93839.09;;;7.49;100.00
6030;BME280;3043;42.682;23.376;2022-11-18T01:48:47;93842.41;;;7.52;100.00
6030;BME280;3043;42.682;23.376;2022-11-18T01:51:17;93839.88;;;7.51;100.00
6030;BME280;3043;42.682;23.376;2022-11-18T01:53:57;93841.34;;;7.59;100.00
6030;BME280;3043;42.682;23.376;2022-11-18T01:56:32;93844.97;;;7.52;100.00
6030;BME280;3043;42.682;23.376;2022-11-18T01:59:08;93846.69;;;7.53;100.00
6030;BME280;3043;42.682;23.376;2022-11-18T02:01:35;93829.34;;;7.58;100.00
6030;BME280;3043;42.682;23.376;2022-11-18T02:04:01;93839.06;;;7.76;100.00
6030;BME280;3043;42.682;23.376;2022-11-18T02:06:27;93824.00;;;7.64;100.00
6030;BME280;3043;42.682;23.376;2022-11-18T02:08:53;93832.53;;;7.66;100.00
6030;BME280;3043;42.682;23.376;2022-11-18T02:11:19;93825.41;;;7.74;100.00
6030;BME280;3043;42.682;23.376;2022-11-18T02:14:13;93832.03;;;7.81;100.00
6030;BME280;3043;42.682;23.376;2022-11-18T02:30:56;93830.84;;;7.91;100.00
6030;BME280;3043;42.682;23.376;2022-11-18T02:33:27;93826.78;;;7.84;100.00
6030;BME280;3043;42.682;23.376;2022-11-18T02:36:07;93828.28;;;7.91;100.00
6030;BME280;3043;42.682;23.376;2022-11-18T02:38:41;93832.41;;;7.95;100.00
6030;BME280;3043;42.682;23.376;2022-11-18T02:41:13;93827.97;;;8.00;100.00
6030;BME280;3043;42.682;23.376;2022-11-18T02:43:50;93826.06;;;8.05;100.00
6030;BME280;3043;42.682;23.376;2022-11-18T02:46:20;93822.81;;;8.00;100.00
6030;BME280;3043;42.682;23.376;2022-11-18T02:48:50;93825.03;;;8.11;100.00
6030;BME280;3043;42.682;23.376;2022-11-18T02:51:21;93820.47;;;8.17;100.00
6030;BME280;3043;42.682;23.376;2022-11-18T02:53:49;93821.00;;;8.02;100.00
6030;BME280;3043;42.682;23.376;2022-11-18T02:56:16;93819.22;;;8.04;100.00
6030;BME280;3043;42.682;23.376;2022-11-18T02:58:42;93821.00;;;8.02;100.00
6030;BME280;3043;42.682;23.376;2022-11-18T03:01:17;93815.84;;;8.02;100.00
6030;BME280;3043;42.682;23.376;2022-11-18T03:03:44;93827.56;;;8.12;100.00
6030;BME280;3043;42.682;23.376;2022-11-18T03:06:25;93836.16;;;8.11;100.00
6030;BME280;3043;42.682;23.376;2022-11-18T03:09:21;93829.44;;;8.07;100.00
6030;BME280;3043;42.682;23.376;2022-11-18T03:24:44;93827.31;;;7.94;100.00
6030;BME280;3043;42.682;23.376;2022-11-18T03:27:21;93822.25;;;7.91;100.00
6030;BME280;3043;42.682;23.376;2022-11-18T03:30:06;93822.50;;;8.09;100.00
6030;BME280;3043;42.682;23.376;2022-11-18T03:32:39;93813.97;;;8.07;100.00
6030;BME280;3043;42.682;23.376;2022-11-18T03:35:29;93820.69;;;8.11;100.00
6030;BME280;3043;42.682;23.376;2022-11-18T03:38:04;93812.81;;;8.16;100.00
6030;BME280;3043;42.682;23.376;2022-11-18T03:40:33;93818.13;;;8.11;100.00
6030;BME280;3043;42.682;23.376;2022-11-18T03:43:05;93816.59;;;8.06;100.00
6030;BME280;3043;42.682;23.376;2022-11-18T03:45:46;93824.19;;;8.10;100.00
6030;BME280;3043;42.682;23.376;2022-11-18T03:48:15;93821.91;;;8.01;100.00
6030;BME280;3043;42.682;23.376;2022-11-18T03:50:57;93813.44;;;7.98;100.00
6030;BME280;3043;42.682;23.376;2022-11-18T03:53:25;93804.09;;;7.95;100.00
6030;BME280;3043;42.682;23.376;2022-11-18T03:55:57;93802.91;;;8.04;100.00
6030;BME280;3043;42.682;23.376;2022-11-18T03:58:33;93798.41;;;8.10;100.00
6030;BME280;3043;42.682;23.376;2022-11-18T04:01:04;93810.28;;;8.14;100.00
6030;BME280;3043;42.682;23.376;2022-11-18T04:03:32;93811.00;;;7.93;100.00
6030;BME280;3043;42.682;23.376;2022-11-18T04:06:03;93806.94;;;8.12;100.00
6030;BME280;3043;42.682;23.376;2022-11-18T04:08:38;93802.00;;;8.06;100.00
6030;BME280;3043;42.682;23.376;2022-11-18T04:11:07;93804.41;;;8.11;100.00
6030;BME280;3043;42.682;23.376;2022-11-18T04:13:55;93802.09;;;8.03;100.00
6030;BME280;3043;42.682;23.376;2022-11-18T04:16:21;93812.72;;;7.94;100.00
6030;BME280;3043;42.682;23.376;2022-11-18T04:18:46;93810.28;;;8.14;100.00
6030;BME280;3043;42.682;23.376;2022-11-18T04:21:12;93810.06;;;8.20;100.00
6030;BME280;3043;42.682;23.376;2022-11-18T04:23:37;93822.06;;;7.97;100.00
6030;BME280;3043;42.682;23.376;2022-11-18T04:26:02;93816.97;;;7.95;100.00
6030;BME280;3043;42.682;23.376;2022-11-18T04:28:28;93831.63;;;7.93;100.00
6030;BME280;3043;42.682;23.376;2022-11-18T04:30:53;93821.31;;;7.93;100.00
6030;BME280;3043;42.682;23.376;2022-11-18T04:33:19;93813.13;;;7.82;100.00
6030;BME280;3043;42.682;23.376;2022-11-18T04:35:45;93826.97;;;7.78;100.00
6030;BME280;3043;42.682;23.376;2022-11-18T04:38:11;93820.16;;;7.77;100.00
6030;BME280;3043;42.682;23.376;2022-11-18T04:40:36;93822.31;;;7.63;100.00
6030;BME280;3043;42.682;23.376;2022-11-18T04:43:02;93837.88;;;7.60;100.00
6030;BME280;3043;42.682;23.376;2022-11-18T04:45:27;93839.34;;;7.67;100.00
6030;BME280;3043;42.682;23.376;2022-11-18T04:47:52;93832.53;;;7.66;100.00
6030;BME280;3043;42.682;23.376;2022-11-18T04:50:18;93836.78;;;7.41;100.00
6030;BME280;3043;42.682;23.376;2022-11-18T04:52:43;93829.44;;;7.55;100.00
6030;BME280;3043;42.682;23.376;2022-11-18T04:55:09;93827.72;;;7.56;100.00
6030;BME280;3043;42.682;23.376;2022-11-18T04:57:34;93830.34;;;7.54;100.00
6030;BME280;3043;42.682;23.376;2022-11-18T04:59:59;93824.78;;;7.40;100.00
6030;BME280;3043;42.682;23.376;2022-11-18T05:02:25;93823.00;;;7.42;100.00
6030;BME280;3043;42.682;23.376;2022-11-18T05:04:50;93826.28;;;7.47;100.00
6030;BME280;3043;42.682;23.376;2022-11-18T05:07:16;93816.75;;;7.49;100.00
6030;BME280;3043;42.682;23.376;2022-11-18T05:09:41;93826.41;;;7.69;100.00
6030;BME280;3043;42.682;23.376;2022-11-18T05:12:12;93819.00;;;7.86;100.00
6030;BME280;3043;42.682;23.376;2022-11-18T05:14:56;93819.09;;;7.83;100.00
6030;BME280;3043;42.682;23.376;2022-11-18T05:17:21;93822.13;;;7.69;100.00
6030;BME280;3043;42.682;23.376;2022-11-18T05:19:47;93828.13;;;7.70;100.00
6030;BME280;3043;42.682;23.376;2022-11-18T05:22:13;93831.19;;;7.81;100.00
6030;BME280;3043;42.682;23.376;2022-11-18T05:24:39;93826.31;;;7.98;100.00
6030;BME280;3043;42.682;23.376;2022-11-18T05:27:05;93831.31;;;8.02;100.00
6030;BME280;3043;42.682;23.376;2022-11-18T05:29:30;93837.31;;;8.03;100.00
6030;BME280;3043;42.682;23.376;2022-11-18T05:31:56;93833.31;;;7.94;100.00
6030;BME280;3043;42.682;23.376;2022-11-18T05:34:21;93836.75;;;8.19;100.00
6030;BME280;3043;42.682;23.376;2022-11-18T05:36:47;93828.84;;;8.25;100.00
6030;BME280;3043;42.682;23.376;2022-11-18T05:39:12;93833.00;;;8.03;100.00
6030;BME280;3043;42.682;23.376;2022-11-18T05:41:38;93834.00;;;8.25;100.00
6030;BME280;3043;42.682;23.376;2022-11-18T05:44:22;93827.97;;;8.49;100.00
6030;BME280;3043;42.682;23.376;2022-11-18T05:46:47;93835.59;;;8.29;100.00
6030;BME280;3043;42.682;23.376;2022-11-18T05:49:13;93837.56;;;8.21;100.00
6030;BME280;3043;42.682;23.376;2022-11-18T05:51:38;93822.44;;;8.37;100.00
6030;BME280;3043;42.682;23.376;2022-11-18T05:54:06;93830.19;;;8.60;100.00
6030;BME280;3043;42.682;23.376;2022-11-18T05:56:37;93825.66;;;8.66;100.00
6030;BME280;3043;42.682;23.376;2022-11-18T05:59:04;93828.75;;;8.76;100.00
6030;BME280;3043;42.682;23.376;2022-11-18T06:03:58;93831.56;;;8.45;100.00
6030;BME280;3043;42.682;23.376;2022-11-18T06:06:26;93829.16;;;8.41;100.00
6030;BME280;3043;42.682;23.376;2022-11-18T06:09:02;93826.69;;;8.38;100.00
6030;BME280;3043;42.682;23.376;2022-11-18T06:11:31;93835.28;;;8.38;100.00
6030;BME280;3043;42.682;23.376;2022-11-18T06:14:21;93832.00;;;8.33;100.00
6030;BME280;3043;42.682;23.376;2022-11-18T06:16:55;93811.19;;;8.62;100.00
6030;BME280;3043;42.682;23.376;2022-11-18T06:19:22;93834.34;;;8.64;100.00
6030;BME280;3043;42.682;23.376;2022-11-18T06:21:48;93832.59;;;8.64;100.00
6030;BME280;3043;42.682;23.376;2022-11-18T06:24:14;93825.75;;;8.63;100.00
6030;BME280;3043;42.682;23.376;2022-11-18T06:26:40;93830.25;;;8.81;100.00
6030;BME280;3043;42.682;23.376;2022-11-18T06:29:09;93824.34;;;8.79;100.00
6030;BME280;3043;42.682;23.376;2022-11-18T06:31:35;93825.22;;;8.78;100.00
6030;BME280;3043;42.682;23.376;2022-11-18T06:34:00;93828.25;;;8.89;100.00
6030;BME280;3043;42.682;23.376;2022-11-18T06:36:26;93808.81;;;9.02;100.00
6030;BME280;3043;42.682;23.376;2022-11-18T06:38:51;93819.50;;;8.93;100.00
6030;BME280;3043;42.682;23.376;2022-11-18T06:41:17;93817.88;;;8.68;100.00
6030;BME280;3043;42.682;23.376;2022-11-18T06:43:42;93813.44;;;8.71;100.00
6030;BME280;3043;42.682;23.376;2022-11-18T06:46:10;93822.19;;;8.90;100.00
6030;BME280;3043;42.682;23.376;2022-11-18T06:48:55;93820.78;;;8.82;100.00
6030;BME280;3043;42.682;23.376;2022-11-18T06:51:20;93820.06;;;8.78;100.00
6030;BME280;3043;42.682;23.376;2022-11-18T06:53:45;93825.72;;;8.88;100.00
6030;BME280;3043;42.682;23.376;2022-11-18T06:56:13;93833.97;;;8.74;100.00
6030;BME280;3043;42.682;23.376;2022-11-18T06:58:39;93828.47;;;8.83;100.00
6030;BME280;3043;42.682;23.376;2022-11-18T07:01:19;93821.66;;;9.04;100.00
6030;BME280;3043;42.682;23.376;2022-11-18T07:03:48;93823.38;;;9.05;100.00
6030;BME280;3043;42.682;23.376;2022-11-18T07:06:19;93836.53;;;9.21;100.00
6030;BME280;3043;42.682;23.376;2022-11-18T07:08:45;93820.41;;;9.37;100.00
6030;BME280;3043;42.682;23.376;2022-11-18T07:11:13;93819.09;;;9.49;100.00
6030;BME280;3043;42.682;23.376;2022-11-18T07:13:39;93834.09;;;9.61;100.00
6030;BME280;3043;42.682;23.376;2022-11-18T07:16:07;93822.91;;;9.82;100.00
6030;BME280;3043;42.682;23.376;2022-11-18T07:18:34;93822.03;;;9.83;100.00
6030;BME280;3043;42.682;23.376;2022-11-18T07:21:02;93802.66;;;9.93;100.00
6030;BME280;3043;42.682;23.376;2022-11-18T07:23:32;93797.66;;;10.10;100.00
6030;BME280;3043;42.682;23.376;2022-11-18T07:25:58;93790.94;;;10.46;100.00
6030;BME280;3043;42.682;23.376;2022-11-18T07:28:24;93800.88;;;10.55;100.00
6030;BME280;3043;42.682;23.376;2022-11-18T07:30:50;93807.59;;;10.59;100.00
6030;BME280;3043;42.682;23.376;2022-11-18T07:33:15;93817.06;;;10.40;100.00
6030;BME280;3043;42.682;23.376;2022-11-18T07:35:41;93808.91;;;10.29;100.00
6030;BME280;3043;42.682;23.376;2022-11-18T07:38:06;93811.50;;;10.49;100.00
6030;BME280;3043;42.682;23.376;2022-11-18T07:40:32;93793.38;;;10.29;100.00
6030;BME280;3043;42.682;23.376;2022-11-18T07:42:57;93795.31;;;10.24;100.00
6030;BME280;3043;42.682;23.376;2022-11-18T07:45:23;93805.91;;;10.18;100.00
6030;BME280;3043;42.682;23.376;2022-11-18T07:47:48;93803.44;;;9.95;100.00
6030;BME280;3043;42.682;23.376;2022-11-18T07:50:15;93801.78;;;10.14;100.00
6030;BME280;3043;42.682;23.376;2022-11-18T07:52:41;93799.81;;;10.20;100.00
6030;BME280;3043;42.682;23.376;2022-11-18T07:55:07;93820.38;;;10.02;100.00
6030;BME280;3043;42.682;23.376;2022-11-18T07:57:32;93809.31;;;9.98;100.00
6030;BME280;3043;42.682;23.376;2022-11-18T07:59:58;93809.75;;;9.88;100.00
6030;BME280;3043;42.682;23.376;2022-11-18T08:02:23;93823.09;;;9.77;100.00
6030;BME280;3043;42.682;23.376;2022-11-18T08:04:48;93825.25;;;9.66;100.00
6030;BME280;3043;42.682;23.376;2022-11-18T08:07:14;93833.84;;;9.67;100.00
6030;BME280;3043;42.682;23.376;2022-11-18T08:09:39;93832.06;;;9.69;100.00
6030;BME280;3043;42.682;23.376;2022-11-18T08:12:05;93825.94;;;9.71;100.00
6030;BME280;3043;42.682;23.376;2022-11-18T08:14:30;93840.13;;;9.83;100.00
6030;BME280;3043;42.682;23.376;2022-11-18T08:16:56;93838.66;;;10.19;100.00
6030;BME280;3043;42.682;23.376;2022-11-18T08:19:21;93835.41;;;10.14;100.00
6030;BME280;3043;42.682;23.376;2022-11-18T08:21:47;93841.94;;;10.22;100.00
6030;BME280;3043;42.682;23.376;2022-11-18T08:24:12;93828.56;;;10.33;100.00
6030;BME280;3043;42.682;23.376;2022-11-18T08:26:38;93822.97;;;10.62;100.00
6030;BME280;3043;42.682;23.376;2022-11-18T08:29:03;93828.19;;;10.80;100.00
6030;BME280;3043;42.682;23.376;2022-11-18T08:31:29;93816.22;;;10.98;100.00
6030;BME280;3043;42.682;23.376;2022-11-18T08:34:00;93809.78;;;11.25;100.00
6030;BME280;3043;42.682;23.376;2022-11-18T08:36:27;93817.47;;;11.45;100.00
6030;BME280;3043;42.682;23.376;2022-11-18T08:38:55;93815.41;;;11.52;100.00
6030;BME280;3043;42.682;23.376;2022-11-18T08:41:31;93801.91;;;11.64;100.00
6030;BME280;3043;42.682;23.376;2022-11-18T08:43:56;93792.06;;;11.89;100.00
6030;BME280;3043;42.682;23.376;2022-11-18T08:46:22;93802.84;;;12.32;100.00
6030;BME280;3043;42.682;23.376;2022-11-18T08:48:47;93784.66;;;12.49;100.00
6030;BME280;3043;42.682;23.376;2022-11-18T08:51:13;93789.66;;;12.87;100.00
6030;BME280;3043;42.682;23.376;2022-11-18T08:53:40;93795.75;;;13.34;100.00
6030;BME280;3043;42.682;23.376;2022-11-18T08:56:05;93786.72;;;13.41;100.00
6030;BME280;3043;42.682;23.376;2022-11-18T08:58:31;93778.16;;;13.39;100.00
6030;BME280;3043;42.682;23.376;2022-11-18T09:00:57;93774.66;;;13.40;100.00
6030;BME280;3043;42.682;23.376;2022-11-18T09:03:22;93757.59;;;12.71;100.00
6030;BME280;3043;42.682;23.376;2022-11-18T09:05:48;93758.03;;;12.46;100.00
6030;BME280;3043;42.682;23.376;2022-11-18T09:08:13;93746.91;;;12.27;100.00
6030;BME280;3043;42.682;23.376;2022-11-18T09:10:42;93743.00;;;12.18;100.00
6030;BME280;3043;42.682;23.376;2022-11-18T09:13:07;93734.94;;;11.73;100.00
6030;BME280;3043;42.682;23.376;2022-11-18T09:15:33;93731.56;;;11.71;100.00
6030;BME280;3043;42.682;23.376;2022-11-18T09:17:58;93733.13;;;11.57;100.00
6030;BME280;3043;42.682;23.376;2022-11-18T09:20:24;93754.56;;;11.60;100.00
6030;BME280;3043;42.682;23.376;2022-11-18T09:22:49;93728.50;;;11.28;100.00
6030;BME280;3043;42.682;23.376;2022-11-18T09:25:15;93721.56;;;11.28;100.00
6030;BME280;3043;42.682;23.376;2022-11-18T09:27:40;93727.63;;;11.10;100.00
6030;BME280;3043;42.682;23.376;2022-11-18T09:30:06;93723.53;;;11.05;100.00
6030;BME280;3043;42.682;23.376;2022-11-18T09:32:32;93718.13;;;10.92;100.00
6030;BME280;3043;42.682;23.376;2022-11-18T09:34:58;93726.63;;;10.75;100.00
6030;BME280;3043;42.682;23.376;2022-11-18T09:37:23;93720.34;;;10.81;100.00
6030;BME280;3043;42.682;23.376;2022-11-18T09:39:49;93710.69;;;10.66;100.00
6030;BME280;3043;42.682;23.376;2022-11-18T09:47:31;93696.56;;;10.73;100.00
6030;BME280;3043;42.682;23.376;2022-11-18T09:49:59;93679.00;;;10.61;100.00
6030;BME280;3043;42.682;23.376;2022-11-18T09:52:30;93649.41;;;10.85;100.00
6030;BME280;3043;42.682;23.376;2022-11-18T09:54:58;93651.25;;;10.83;100.00
6030;BME280;3043;42.682;23.376;2022-11-18T09:57:43;93665.66;;;10.70;100.00
6030;BME280;3043;42.682;23.376;2022-11-18T10:05:20;93651.66;;;11.45;100.00
6030;BME280;3043;42.682;23.376;2022-11-18T10:10:55;93648.28;;;12.11;100.00
6030;BME280;3043;42.682;23.376;2022-11-18T10:19:00;93681.66;;;12.83;100.00
6030;BME280;3043;42.682;23.376;2022-11-18T10:24:25;93650.41;;;13.31;100.00
6030;BME280;3043;42.682;23.376;2022-11-18T10:26:57;93654.81;;;13.60;100.00
6030;BME280;3043;42.682;23.376;2022-11-18T10:29:23;93651.09;;;13.93;100.00
6030;BME280;3043;42.682;23.376;2022-11-18T10:31:56;93663.56;;;14.32;100.00
6030;BME280;3043;42.682;23.376;2022-11-18T10:34:25;93644.75;;;14.83;100.00
6030;BME280;3043;42.682;23.376;2022-11-18T10:37:06;93670.84;;;15.64;100.00
6030;BME280;3043;42.682;23.376;2022-11-18T10:39:32;93655.28;;;16.15;100.00
6030;BME280;3043;42.682;23.376;2022-11-18T10:42:05;93653.69;;;16.51;100.00
6030;BME280;3043;42.682;23.376;2022-11-18T10:44:38;93636.69;;;16.82;100.00
6030;BME280;3043;42.682;23.376;2022-11-18T10:47:25;93658.22;;;17.34;100.00
6030;BME280;3043;42.682;23.376;2022-11-18T10:49:53;93657.00;;;17.63;100.00
6030;BME280;3043;42.682;23.376;2022-11-18T10:52:19;93658.09;;;17.48;100.00
6030;BME280;3043;42.682;23.376;2022-11-18T10:55:05;93657.47;;;16.96;100.00
6030;BME280;3043;42.682;23.376;2022-11-18T10:57:35;93653.66;;;16.76;100.00
6030;BME280;3043;42.682;23.376;2022-11-18T11:00:04;93636.09;;;16.66;100.00
6030;BME280;3043;42.682;23.376;2022-11-18T11:02:38;93635.88;;;16.19;100.00
6030;BME280;3043;42.682;23.376;2022-11-18T11:05:19;93648.56;;;15.85;100.00
6030;BME280;3043;42.682;23.376;2022-11-18T11:08:01;93637.22;;;15.72;100.00
6030;BME280;3043;42.682;23.376;2022-11-18T11:10:27;93629.50;;;15.58;100.00
6030;BME280;3043;42.682;23.376;2022-11-18T11:13:00;93623.59;;;15.02;100.00
6030;BME280;3043;42.682;23.376;2022-11-18T11:15:42;93617.44;;;14.76;100.00
6030;BME280;3043;42.682;23.376;2022-11-18T11:18:23;93634.91;;;14.60;100.00
6030;BME280;3043;42.682;23.376;2022-11-18T11:21:27;93612.22;;;14.48;100.00
6030;BME280;3043;42.682;23.376;2022-11-18T11:23:53;93596.78;;;14.73;100.00
6030;BME280;3043;42.682;23.376;2022-11-18T11:34:17;93595.81;;;14.88;100.00
6030;BME280;3043;42.682;23.376;2022-11-18T11:50:27;93575.06;;;15.13;100.00
6030;BME280;3043;42.682;23.376;2022-11-18T12:00:40;93579.88;;;15.19;100.00
6030;BME280;3043;42.682;23.376;2022-11-18T12:05:45;93575.28;;;15.10;100.00
6030;BME280;3043;42.682;23.376;2022-11-18T12:11:16;93563.84;;;15.25;100.00
6030;BME280;3043;42.682;23.376;2022-11-18T12:13:47;93562.97;;;15.12;100.00
6030;BME280;3043;42.682;23.376;2022-11-18T12:16:28;93560.81;;;14.92;100.00
6030;BME280;3043;42.682;23.376;2022-11-18T12:18:59;93556.00;;;14.86;100.00
6030;BME280;3043;42.682;23.376;2022-11-18T12:32:27;93520.13;;;14.77;100.00
6030;BME280;3043;42.682;23.376;2022-11-18T12:34:57;93533.34;;;15.01;100.00
6030;BME280;3043;42.682;23.376;2022-11-18T12:42:40;93536.66;;;14.90;100.00
6030;BME280;3043;42.682;23.376;2022-11-18T12:48:34;93522.53;;;15.07;100.00
6030;BME280;3043;42.682;23.376;2022-11-18T12:53:44;93539.22;;;15.17;100.00
6030;BME280;3043;42.682;23.376;2022-11-18T12:58:36;93503.28;;;15.34;100.00
6030;BME280;3043;42.682;23.376;2022-11-18T13:01:08;93487.56;;;15.23;100.00
6030;BME280;3043;42.682;23.376;2022-11-18T13:03:34;93508.19;;;15.26;100.00
6030;BME280;3043;42.682;23.376;2022-11-18T13:06:05;93518.63;;;15.26;100.00
6030;BME280;3043;42.682;23.376;2022-11-18T13:08:31;93491.69;;;15.13;100.00
6030;BME280;3043;42.682;23.376;2022-11-18T13:11:15;93483.00;;;15.39;100.00
6030;BME280;3043;42.682;23.376;2022-11-18T13:14:00;93487.84;;;15.58;100.00
6030;BME280;3043;42.682;23.376;2022-11-18T13:16:44;93468.84;;;15.68;100.00
6030;BME280;3043;42.682;23.376;2022-11-18T13:19:28;93483.03;;;15.89;100.00
6030;BME280;3043;42.682;23.376;2022-11-18T13:21:55;93497.00;;;16.14;100.00
6030;BME280;3043;42.682;23.376;2022-11-18T13:24:47;93510.47;;;16.20;100.00
6030;BME280;3043;42.682;23.376;2022-11-18T13:30:11;93471.00;;;16.61;100.00
6030;BME280;3043;42.682;23.376;2022-11-18T13:32:42;93479.47;;;16.88;100.00
6030;BME280;3043;42.682;23.376;2022-11-18T13:37:34;93485.56;;;17.23;100.00
6030;BME280;3043;42.682;23.376;2022-11-18T13:40:00;93473.03;;;17.39;100.00
6030;BME280;3043;42.682;23.376;2022-11-18T13:42:30;93481.13;;;17.36;100.00
6030;BME280;3043;42.682;23.376;2022-11-18T13:55:20;93491.06;;;17.54;100.00
6030;BME280;3043;42.682;23.376;2022-11-18T13:57:51;93485.88;;;17.42;100.00
6030;BME280;3043;42.682;23.376;2022-11-18T14:00:23;93482.66;;;17.38;100.00
6030;BME280;3043;42.682;23.376;2022-11-18T14:02:55;93488.22;;;17.34;100.00
6030;BME280;3043;42.682;23.376;2022-11-18T14:05:21;93473.97;;;17.27;100.00
6030;BME280;3043;42.682;23.376;2022-11-18T14:07:57;93467.34;;;16.87;100.00
6030;BME280;3043;42.682;23.376;2022-11-18T14:10:32;93456.22;;;16.96;100.00
6030;BME280;3043;42.682;23.376;2022-11-18T14:12:59;93454.19;;;16.88;100.00
6030;BME280;3043;42.682;23.376;2022-11-18T14:17:58;93447.88;;;16.91;100.00
6030;BME280;3043;42.682;23.376;2022-11-18T14:20:26;93455.25;;;16.86;100.00
6030;BME280;3043;42.682;23.376;2022-11-18T14:22:56;93435.31;;;16.96;100.00
6030;BME280;3043;42.682;23.376;2022-11-18T14:25:28;93440.31;;;16.99;100.00
6030;BME280;3043;42.682;23.376;2022-11-18T14:27:57;93438.66;;;16.98;100.00
6030;BME280;3043;42.682;23.376;2022-11-18T14:30:35;93462.25;;;17.09;100.00
6030;BME280;3043;42.682;23.376;2022-11-18T14:35:39;93440.94;;;17.02;100.00
6030;BME280;3043;42.682;23.376;2022-11-18T14:38:13;93436.44;;;16.81;100.00
6030;BME280;3043;42.682;23.376;2022-11-18T14:40:39;93450.47;;;16.80;100.00
6030;BME280;3043;42.682;23.376;2022-11-18T14:43:05;93453.53;;;16.74;100.00
6030;BME280;3043;42.682;23.376;2022-11-18T14:45:30;93460.84;;;16.92;100.00
6030;BME280;3043;42.682;23.376;2022-11-18T14:47:56;93448.34;;;16.85;100.00
6030;BME280;3043;42.682;23.376;2022-11-18T14:50:21;93476.66;;;16.55;100.00
6030;BME280;3043;42.682;23.376;2022-11-18T14:52:46;93458.03;;;16.23;100.00
6030;BME280;3043;42.682;23.376;2022-11-18T14:55:12;93452.13;;;16.09;100.00
6030;BME280;3043;42.682;23.376;2022-11-18T14:57:37;93475.69;;;16.20;100.00
6030;BME280;3043;42.682;23.376;2022-11-18T15:00:03;93489.91;;;16.16;100.00
6030;BME280;3043;42.682;23.376;2022-11-18T15:02:29;93483.72;;;16.17;100.00
6030;BME280;3043;42.682;23.376;2022-11-18T15:04:54;93474.75;;;16.21;100.00
6030;BME280;3043;42.682;23.376;2022-11-18T15:07:21;93503.91;;;16.15;100.00
6030;BME280;3043;42.682;23.376;2022-11-18T15:09:46;93512.44;;;16.17;100.00
6030;BME280;3043;42.682;23.376;2022-11-18T15:12:12;93511.78;;;16.26;100.00
6030;BME280;3043;42.682;23.376;2022-11-18T15:14:37;93488.59;;;16.34;100.00
6030;BME280;3043;42.682;23.376;2022-11-18T15:17:03;93489.84;;;16.41;100.00
6030;BME280;3043;42.682;23.376;2022-11-18T15:19:29;93503.63;;;16.43;100.00
6030;BME280;3043;42.682;23.376;2022-11-18T15:21:55;93515.56;;;16.47;100.00
6030;BME280;3043;42.682;23.376;2022-11-18T15:24:20;93491.41;;;16.56;100.00
6030;BME280;3043;42.682;23.376;2022-11-18T15:26:47;93488.59;;;16.59;100.00
6030;BME280;3043;42.682;23.376;2022-11-18T15:29:23;93487.94;;;16.68;100.00
6030;BME280;3043;42.682;23.376;2022-11-18T15:31:49;93468.25;;;16.75;100.00